sensor_id;sensor_type;location;lat;lon;timestamp;temperature;humidity
61117;DHT22;47002;50.856;6.580;2022-09-03T00:02:32;13.50;56.30
61117;DHT22;47002;50.856;6.580;2022-09-03T00:05:04;13.40;56.60
61117;DHT22;47002;50.856;6.580;2022-09-03T00:07:36;13.40;56.70
61117;DHT22;47002;50.856;6.580;2022-09-03T00:10:07;13.30;56.90
61117;DHT22;47002;50.856;6.580;2022-09-03T00:12:37;13.20;57.30
61117;DHT22;47002;50.856;6.580;2022-09-03T00:15:06;13.20;57.60
61117;DHT22;47002;50.856;6.580;2022-09-03T00:17:37;13.10;57.50
61117;DHT22;47002;50.856;6.580;2022-09-03T00:20:07;13.10;57.70
61117;DHT22;47002;50.856;6.580;2022-09-03T00:22:38;13.10;57.80
61117;DHT22;47002;50.856;6.580;2022-09-03T00:25:09;13.10;58.30
61117;DHT22;47002;50.856;6.580;2022-09-03T00:27:38;13.10;58.40
61117;DHT22;47002;50.856;6.580;2022-09-03T00:30:08;13.00;58.50
61117;DHT22;47002;50.856;6.580;2022-09-03T00:32:39;12.90;58.90
61117;DHT22;47002;50.856;6.580;2022-09-03T00:35:10;12.80;59.30
61117;DHT22;47002;50.856;6.580;2022-09-03T00:37:38;12.70;59.50
61117;DHT22;47002;50.856;6.580;2022-09-03T00:40:06;12.60;59.90
61117;DHT22;47002;50.856;6.580;2022-09-03T00:42:43;12.60;60.20
61117;DHT22;47002;50.856;6.580;2022-09-03T00:45:23;12.60;60.00
61117;DHT22;47002;50.856;6.580;2022-09-03T00:48:03;12.60;59.90
61117;DHT22;47002;50.856;6.580;2022-09-03T00:50:40;12.60;60.00
61117;DHT22;47002;50.856;6.580;2022-09-03T00:53:15;12.60;60.00
61117;DHT22;47002;50.856;6.580;2022-09-03T00:55:46;12.60;60.10
61117;DHT22;47002;50.856;6.580;2022-09-03T01:01:14;12.70;60.00
61117;DHT22;47002;50.856;6.580;2022-09-03T01:03:48;12.70;59.80
61117;DHT22;47002;50.856;6.580;2022-09-03T01:06:23;12.70;59.60
61117;DHT22;47002;50.856;6.580;2022-09-03T01:09:03;12.80;59.50
61117;DHT22;47002;50.856;6.580;2022-09-03T01:11:38;12.70;59.60
61117;DHT22;47002;50.856;6.580;2022-09-03T01:14:16;12.70;59.60
61117;DHT22;47002;50.856;6.580;2022-09-03T01:16:50;12.70;59.70
61117;DHT22;47002;50.856;6.580;2022-09-03T01:19:41;12.70;59.70
61117;DHT22;47002;50.856;6.580;2022-09-03T01:22:29;12.70;59.90
61117;DHT22;47002;50.856;6.580;2022-09-03T01:25:16;12.60;60.00
61117;DHT22;47002;50.856;6.580;2022-09-03T01:28:00;12.60;60.30
61117;DHT22;47002;50.856;6.580;2022-09-03T01:30:27;12.60;60.60
61117;DHT22;47002;50.856;6.580;2022-09-03T01:32:59;12.60;60.50
61117;DHT22;47002;50.856;6.580;2022-09-03T01:35:35;12.60;60.50
61117;DHT22;47002;50.856;6.580;2022-09-03T01:38:11;12.60;60.50
61117;DHT22;47002;50.856;6.580;2022-09-03T01:40:44;12.60;60.70
61117;DHT22;47002;50.856;6.580;2022-09-03T01:43:27;12.60;60.80
61117;DHT22;47002;50.856;6.580;2022-09-03T01:45:58;12.60;60.80
61117;DHT22;47002;50.856;6.580;2022-09-03T01:48:34;12.60;60.80
61117;DHT22;47002;50.856;6.580;2022-09-03T01:51:08;12.50;60.90
61117;DHT22;47002;50.856;6.580;2022-09-03T01:53:47;12.60;61.10
61117;DHT22;47002;50.856;6.580;2022-09-03T01:56:27;12.60;61.20
61117;DHT22;47002;50.856;6.580;2022-09-03T01:59:03;12.60;60.90
61117;DHT22;47002;50.856;6.580;2022-09-03T02:01:34;12.60;60.70
61117;DHT22;47002;50.856;6.580;2022-09-03T02:04:11;12.60;60.90
61117;DHT22;47002;50.856;6.580;2022-09-03T02:06:38;12.60;60.70
61117;DHT22;47002;50.856;6.580;2022-09-03T02:09:04;12.60;60.70
61117;DHT22;47002;50.856;6.580;2022-09-03T02:11:29;12.60;60.70
61117;DHT22;47002;50.856;6.580;2022-09-03T02:13:56;12.70;60.50
61117;DHT22;47002;50.856;6.580;2022-09-03T02:16:26;12.70;60.50
61117;DHT22;47002;50.856;6.580;2022-09-03T02:18:55;12.70;60.50
61117;DHT22;47002;50.856;6.580;2022-09-03T02:21:24;12.80;60.40
61117;DHT22;47002;50.856;6.580;2022-09-03T02:23:50;12.80;60.00
61117;DHT22;47002;50.856;6.580;2022-09-03T02:26:18;12.80;60.30
61117;DHT22;47002;50.856;6.580;2022-09-03T02:28:45;12.80;60.30
61117;DHT22;47002;50.856;6.580;2022-09-03T02:31:12;12.70;60.40
61117;DHT22;47002;50.856;6.580;2022-09-03T02:33:42;12.80;60.10
61117;DHT22;47002;50.856;6.580;2022-09-03T02:36:10;12.70;60.20
61117;DHT22;47002;50.856;6.580;2022-09-03T02:38:36;12.70;60.40
61117;DHT22;47002;50.856;6.580;2022-09-03T02:41:02;12.70;60.60
61117;DHT22;47002;50.856;6.580;2022-09-03T02:43:33;12.70;60.50
61117;DHT22;47002;50.856;6.580;2022-09-03T02:46:03;12.60;60.60
61117;DHT22;47002;50.856;6.580;2022-09-03T02:48:29;12.60;60.80
61117;DHT22;47002;50.856;6.580;2022-09-03T02:50:56;12.60;61.10
61117;DHT22;47002;50.856;6.580;2022-09-03T02:53:22;12.60;61.10
61117;DHT22;47002;50.856;6.580;2022-09-03T02:55:48;12.60;61.00
61117;DHT22;47002;50.856;6.580;2022-09-03T02:58:14;12.60;61.30
61117;DHT22;47002;50.856;6.580;2022-09-03T03:00:39;12.60;61.10
61117;DHT22;47002;50.856;6.580;2022-09-03T03:03:05;12.60;61.20
61117;DHT22;47002;50.856;6.580;2022-09-03T03:05:39;12.60;61.20
61117;DHT22;47002;50.856;6.580;2022-09-03T03:08:07;12.70;60.90
61117;DHT22;47002;50.856;6.580;2022-09-03T03:10:33;12.70;60.90
61117;DHT22;47002;50.856;6.580;2022-09-03T03:12:59;12.70;60.70
61117;DHT22;47002;50.856;6.580;2022-09-03T03:15:25;12.80;60.90
61117;DHT22;47002;50.856;6.580;2022-09-03T03:17:51;12.80;60.60
61117;DHT22;47002;50.856;6.580;2022-09-03T03:20:16;12.80;60.40
61117;DHT22;47002;50.856;6.580;2022-09-03T03:22:42;12.80;60.40
61117;DHT22;47002;50.856;6.580;2022-09-03T03:25:09;12.90;60.50
61117;DHT22;47002;50.856;6.580;2022-09-03T03:27:35;13.00;60.70
61117;DHT22;47002;50.856;6.580;2022-09-03T03:30:01;13.00;60.20
61117;DHT22;47002;50.856;6.580;2022-09-03T03:32:26;13.00;60.00
61117;DHT22;47002;50.856;6.580;2022-09-03T03:34:52;13.10;60.00
61117;DHT22;47002;50.856;6.580;2022-09-03T03:37:18;13.10;59.90
61117;DHT22;47002;50.856;6.580;2022-09-03T03:39:43;13.00;59.80
61117;DHT22;47002;50.856;6.580;2022-09-03T03:42:10;13.10;59.90
61117;DHT22;47002;50.856;6.580;2022-09-03T03:44:36;13.10;60.00
61117;DHT22;47002;50.856;6.580;2022-09-03T03:47:02;13.10;60.00
61117;DHT22;47002;50.856;6.580;2022-09-03T03:49:27;13.10;59.50
61117;DHT22;47002;50.856;6.580;2022-09-03T03:51:53;13.20;59.30
61117;DHT22;47002;50.856;6.580;2022-09-03T03:54:19;13.30;59.20
61117;DHT22;47002;50.856;6.580;2022-09-03T03:56:44;13.30;59.30
61117;DHT22;47002;50.856;6.580;2022-09-03T03:59:11;13.30;59.20
61117;DHT22;47002;50.856;6.580;2022-09-03T04:01:37;13.40;59.00
61117;DHT22;47002;50.856;6.580;2022-09-03T04:04:03;13.40;59.10
61117;DHT22;47002;50.856;6.580;2022-09-03T04:06:29;13.40;58.90
61117;DHT22;47002;50.856;6.580;2022-09-03T04:08:54;13.50;59.00
61117;DHT22;47002;50.856;6.580;2022-09-03T04:11:22;13.50;58.70
61117;DHT22;47002;50.856;6.580;2022-09-03T04:13:49;13.60;58.50
61117;DHT22;47002;50.856;6.580;2022-09-03T04:16:17;13.60;58.20
61117;DHT22;47002;50.856;6.580;2022-09-03T04:18:43;13.70;58.10
61117;DHT22;47002;50.856;6.580;2022-09-03T04:21:10;13.70;58.10
61117;DHT22;47002;50.856;6.580;2022-09-03T04:23:38;13.70;57.80
61117;DHT22;47002;50.856;6.580;2022-09-03T04:26:04;13.70;57.90
61117;DHT22;47002;50.856;6.580;2022-09-03T04:28:31;13.80;57.90
61117;DHT22;47002;50.856;6.580;2022-09-03T04:31:00;13.80;57.90
61117;DHT22;47002;50.856;6.580;2022-09-03T04:33:27;13.80;57.80
61117;DHT22;47002;50.856;6.580;2022-09-03T04:36:02;13.80;57.80
61117;DHT22;47002;50.856;6.580;2022-09-03T04:38:28;13.80;57.90
61117;DHT22;47002;50.856;6.580;2022-09-03T04:40:54;13.80;57.80
61117;DHT22;47002;50.856;6.580;2022-09-03T04:43:19;13.90;57.60
61117;DHT22;47002;50.856;6.580;2022-09-03T04:45:45;13.90;57.80
61117;DHT22;47002;50.856;6.580;2022-09-03T04:48:11;13.90;57.30
61117;DHT22;47002;50.856;6.580;2022-09-03T04:50:38;13.80;57.60
61117;DHT22;47002;50.856;6.580;2022-09-03T04:53:04;13.90;57.60
61117;DHT22;47002;50.856;6.580;2022-09-03T04:55:32;13.80;57.90
61117;DHT22;47002;50.856;6.580;2022-09-03T04:57:58;13.80;57.90
61117;DHT22;47002;50.856;6.580;2022-09-03T05:00:24;13.80;57.90
61117;DHT22;47002;50.856;6.580;2022-09-03T05:02:49;13.80;57.90
61117;DHT22;47002;50.856;6.580;2022-09-03T05:05:15;13.70;58.00
61117;DHT22;47002;50.856;6.580;2022-09-03T05:07:42;13.70;58.10
61117;DHT22;47002;50.856;6.580;2022-09-03T05:10:09;13.70;58.10
61117;DHT22;47002;50.856;6.580;2022-09-03T05:12:35;13.60;58.40
61117;DHT22;47002;50.856;6.580;2022-09-03T05:15:01;13.60;58.60
61117;DHT22;47002;50.856;6.580;2022-09-03T05:17:27;13.70;58.50
61117;DHT22;47002;50.856;6.580;2022-09-03T05:19:52;13.70;58.40
61117;DHT22;47002;50.856;6.580;2022-09-03T05:22:18;13.70;58.60
61117;DHT22;47002;50.856;6.580;2022-09-03T05:24:45;13.70;58.60
61117;DHT22;47002;50.856;6.580;2022-09-03T05:27:11;13.80;58.60
61117;DHT22;47002;50.856;6.580;2022-09-03T05:29:37;13.80;58.50
61117;DHT22;47002;50.856;6.580;2022-09-03T05:32:03;14.00;58.30
61117;DHT22;47002;50.856;6.580;2022-09-03T05:34:28;14.00;58.00
61117;DHT22;47002;50.856;6.580;2022-09-03T05:36:54;14.00;58.10
61117;DHT22;47002;50.856;6.580;2022-09-03T05:39:20;14.10;57.90
61117;DHT22;47002;50.856;6.580;2022-09-03T05:41:47;14.10;57.90
61117;DHT22;47002;50.856;6.580;2022-09-03T05:44:13;14.20;57.60
61117;DHT22;47002;50.856;6.580;2022-09-03T05:46:38;14.20;57.60
61117;DHT22;47002;50.856;6.580;2022-09-03T05:49:05;14.20;57.80
61117;DHT22;47002;50.856;6.580;2022-09-03T05:51:31;14.30;57.60
61117;DHT22;47002;50.856;6.580;2022-09-03T05:53:58;14.40;57.30
61117;DHT22;47002;50.856;6.580;2022-09-03T05:56:25;14.40;57.30
61117;DHT22;47002;50.856;6.580;2022-09-03T05:58:53;14.50;57.10
61117;DHT22;47002;50.856;6.580;2022-09-03T06:01:21;14.60;56.90
61117;DHT22;47002;50.856;6.580;2022-09-03T06:03:52;14.60;56.70
61117;DHT22;47002;50.856;6.580;2022-09-03T06:06:20;14.60;57.00
61117;DHT22;47002;50.856;6.580;2022-09-03T06:08:48;14.70;56.50
61117;DHT22;47002;50.856;6.580;2022-09-03T06:11:13;14.70;56.40
61117;DHT22;47002;50.856;6.580;2022-09-03T06:13:39;14.70;56.30
61117;DHT22;47002;50.856;6.580;2022-09-03T06:16:06;14.80;56.10
61117;DHT22;47002;50.856;6.580;2022-09-03T06:18:32;14.80;56.10
61117;DHT22;47002;50.856;6.580;2022-09-03T06:21:00;14.90;56.10
61117;DHT22;47002;50.856;6.580;2022-09-03T06:23:26;14.80;56.40
61117;DHT22;47002;50.856;6.580;2022-09-03T06:26:00;14.90;56.30
61117;DHT22;47002;50.856;6.580;2022-09-03T06:28:26;14.90;55.90
61117;DHT22;47002;50.856;6.580;2022-09-03T06:30:51;15.00;56.10
61117;DHT22;47002;50.856;6.580;2022-09-03T06:33:18;15.10;55.50
61117;DHT22;47002;50.856;6.580;2022-09-03T06:35:44;15.20;55.30
61117;DHT22;47002;50.856;6.580;2022-09-03T06:38:10;15.20;55.40
61117;DHT22;47002;50.856;6.580;2022-09-03T06:40:36;15.20;55.40
61117;DHT22;47002;50.856;6.580;2022-09-03T06:43:01;15.40;55.20
61117;DHT22;47002;50.856;6.580;2022-09-03T06:45:27;15.50;54.70
61117;DHT22;47002;50.856;6.580;2022-09-03T06:47:53;15.60;54.40
61117;DHT22;47002;50.856;6.580;2022-09-03T06:50:20;15.60;54.50
61117;DHT22;47002;50.856;6.580;2022-09-03T06:52:50;15.60;54.40
61117;DHT22;47002;50.856;6.580;2022-09-03T06:55:16;15.70;54.10
61117;DHT22;47002;50.856;6.580;2022-09-03T06:57:41;15.70;54.00
61117;DHT22;47002;50.856;6.580;2022-09-03T07:00:08;15.80;54.00
61117;DHT22;47002;50.856;6.580;2022-09-03T07:02:34;15.90;54.00
61117;DHT22;47002;50.856;6.580;2022-09-03T07:04:59;16.00;53.90
61117;DHT22;47002;50.856;6.580;2022-09-03T07:07:26;16.10;53.10
61117;DHT22;47002;50.856;6.580;2022-09-03T07:09:52;16.30;53.10
61117;DHT22;47002;50.856;6.580;2022-09-03T07:12:18;16.40;52.80
61117;DHT22;47002;50.856;6.580;2022-09-03T07:14:45;16.60;52.00
61117;DHT22;47002;50.856;6.580;2022-09-03T07:17:11;16.70;51.50
61117;DHT22;47002;50.856;6.580;2022-09-03T07:19:37;16.80;51.00
61117;DHT22;47002;50.856;6.580;2022-09-03T07:22:02;16.90;50.90
61117;DHT22;47002;50.856;6.580;2022-09-03T07:24:30;17.00;50.70
61117;DHT22;47002;50.856;6.580;2022-09-03T07:26:55;17.10;50.80
61117;DHT22;47002;50.856;6.580;2022-09-03T07:29:21;17.10;50.60
61117;DHT22;47002;50.856;6.580;2022-09-03T07:31:47;17.20;50.40
61117;DHT22;47002;50.856;6.580;2022-09-03T07:34:14;17.30;49.80
61117;DHT22;47002;50.856;6.580;2022-09-03T07:36:41;17.40;50.00
61117;DHT22;47002;50.856;6.580;2022-09-03T07:39:08;17.50;49.70
61117;DHT22;47002;50.856;6.580;2022-09-03T07:41:35;17.50;49.30
61117;DHT22;47002;50.856;6.580;2022-09-03T07:44:01;17.50;49.40
61117;DHT22;47002;50.856;6.580;2022-09-03T07:46:27;17.60;49.40
61117;DHT22;47002;50.856;6.580;2022-09-03T07:48:55;17.70;49.20
61117;DHT22;47002;50.856;6.580;2022-09-03T07:51:23;17.60;49.40
61117;DHT22;47002;50.856;6.580;2022-09-03T07:53:51;17.80;49.30
61117;DHT22;47002;50.856;6.580;2022-09-03T07:56:17;17.80;49.30
61117;DHT22;47002;50.856;6.580;2022-09-03T07:58:44;17.90;49.00
61117;DHT22;47002;50.856;6.580;2022-09-03T08:01:11;17.90;48.70
61117;DHT22;47002;50.856;6.580;2022-09-03T08:03:38;18.00;48.60
61117;DHT22;47002;50.856;6.580;2022-09-03T08:06:05;18.10;48.50
61117;DHT22;47002;50.856;6.580;2022-09-03T08:08:32;18.20;48.80
61117;DHT22;47002;50.856;6.580;2022-09-03T08:11:03;18.40;49.00
61117;DHT22;47002;50.856;6.580;2022-09-03T08:13:29;18.70;48.80
61117;DHT22;47002;50.856;6.580;2022-09-03T08:15:56;19.10;48.60
61117;DHT22;47002;50.856;6.580;2022-09-03T08:18:22;19.30;48.50
61117;DHT22;47002;50.856;6.580;2022-09-03T08:20:47;19.60;48.60
61117;DHT22;47002;50.856;6.580;2022-09-03T08:23:13;19.90;48.10
61117;DHT22;47002;50.856;6.580;2022-09-03T08:25:39;20.10;47.70
61117;DHT22;47002;50.856;6.580;2022-09-03T08:28:04;20.50;47.00
61117;DHT22;47002;50.856;6.580;2022-09-03T08:30:30;20.70;46.60
61117;DHT22;47002;50.856;6.580;2022-09-03T08:33:00;21.00;46.10
61117;DHT22;47002;50.856;6.580;2022-09-03T08:35:26;21.20;45.20
61117;DHT22;47002;50.856;6.580;2022-09-03T08:37:51;21.50;45.10
61117;DHT22;47002;50.856;6.580;2022-09-03T08:40:17;21.60;45.00
61117;DHT22;47002;50.856;6.580;2022-09-03T08:42:53;21.70;44.50
61117;DHT22;47002;50.856;6.580;2022-09-03T08:45:22;21.70;44.50
61117;DHT22;47002;50.856;6.580;2022-09-03T08:47:50;21.60;44.60
61117;DHT22;47002;50.856;6.580;2022-09-03T08:50:24;21.60;45.00
61117;DHT22;47002;50.856;6.580;2022-09-03T08:52:53;21.50;45.40
61117;DHT22;47002;50.856;6.580;2022-09-03T08:55:24;21.40;45.30
61117;DHT22;47002;50.856;6.580;2022-09-03T08:57:55;21.30;45.50
61117;DHT22;47002;50.856;6.580;2022-09-03T09:00:22;21.20;45.70
61117;DHT22;47002;50.856;6.580;2022-09-03T09:03:13;21.20;45.90
61117;DHT22;47002;50.856;6.580;2022-09-03T09:05:48;21.30;45.60
61117;DHT22;47002;50.856;6.580;2022-09-03T09:08:22;21.30;45.30
61117;DHT22;47002;50.856;6.580;2022-09-03T09:10:52;21.30;45.30
61117;DHT22;47002;50.856;6.580;2022-09-03T09:13:23;21.30;45.30
61117;DHT22;47002;50.856;6.580;2022-09-03T09:15:56;21.40;45.30
61117;DHT22;47002;50.856;6.580;2022-09-03T09:18:37;21.60;45.30
61117;DHT22;47002;50.856;6.580;2022-09-03T09:21:11;21.80;44.90
61117;DHT22;47002;50.856;6.580;2022-09-03T09:23:42;22.20;44.30
61117;DHT22;47002;50.856;6.580;2022-09-03T09:26:12;22.40;43.90
61117;DHT22;47002;50.856;6.580;2022-09-03T09:28:38;22.60;43.60
61117;DHT22;47002;50.856;6.580;2022-09-03T09:31:06;22.60;43.30
61117;DHT22;47002;50.856;6.580;2022-09-03T09:33:34;22.50;43.90
61117;DHT22;47002;50.856;6.580;2022-09-03T09:36:00;22.50;43.80
61117;DHT22;47002;50.856;6.580;2022-09-03T09:38:30;22.60;44.00
61117;DHT22;47002;50.856;6.580;2022-09-03T09:41:07;22.70;43.80
61117;DHT22;47002;50.856;6.580;2022-09-03T09:43:33;22.80;43.60
61117;DHT22;47002;50.856;6.580;2022-09-03T09:46:06;22.90;43.20
61117;DHT22;47002;50.856;6.580;2022-09-03T09:48:36;22.80;43.20
61117;DHT22;47002;50.856;6.580;2022-09-03T09:51:03;22.80;43.30
61117;DHT22;47002;50.856;6.580;2022-09-03T09:53:30;22.70;43.10
61117;DHT22;47002;50.856;6.580;2022-09-03T09:55:57;22.60;43.50
61117;DHT22;47002;50.856;6.580;2022-09-03T09:58:24;22.50;43.50
61117;DHT22;47002;50.856;6.580;2022-09-03T10:00:55;22.40;43.80
61117;DHT22;47002;50.856;6.580;2022-09-03T10:03:21;22.50;44.10
61117;DHT22;47002;50.856;6.580;2022-09-03T10:05:57;22.60;44.40
61117;DHT22;47002;50.856;6.580;2022-09-03T10:08:25;22.60;43.60
61117;DHT22;47002;50.856;6.580;2022-09-03T10:10:52;22.70;43.40
61117;DHT22;47002;50.856;6.580;2022-09-03T10:13:20;22.80;43.50
61117;DHT22;47002;50.856;6.580;2022-09-03T10:15:50;23.00;43.20
61117;DHT22;47002;50.856;6.580;2022-09-03T10:18:21;23.30;42.50
61117;DHT22;47002;50.856;6.580;2022-09-03T10:20:57;23.60;41.90
61117;DHT22;47002;50.856;6.580;2022-09-03T10:23:25;23.70;41.20
61117;DHT22;47002;50.856;6.580;2022-09-03T10:25:59;23.70;40.90
61117;DHT22;47002;50.856;6.580;2022-09-03T10:28:28;23.70;41.50
61117;DHT22;47002;50.856;6.580;2022-09-03T10:31:12;23.70;41.10
61117;DHT22;47002;50.856;6.580;2022-09-03T10:33:43;23.60;41.70
61117;DHT22;47002;50.856;6.580;2022-09-03T10:36:17;23.70;42.10
61117;DHT22;47002;50.856;6.580;2022-09-03T10:38:45;23.90;42.10
61117;DHT22;47002;50.856;6.580;2022-09-03T10:41:24;24.10;41.40
61117;DHT22;47002;50.856;6.580;2022-09-03T10:44:22;24.30;41.00
61117;DHT22;47002;50.856;6.580;2022-09-03T10:46:59;24.40;41.00
61117;DHT22;47002;50.856;6.580;2022-09-03T10:49:34;24.40;41.00
61117;DHT22;47002;50.856;6.580;2022-09-03T10:52:09;24.50;40.70
61117;DHT22;47002;50.856;6.580;2022-09-03T10:54:56;24.60;40.70
61117;DHT22;47002;50.856;6.580;2022-09-03T10:57:34;24.60;40.30
61117;DHT22;47002;50.856;6.580;2022-09-03T11:00:06;24.60;40.90
61117;DHT22;47002;50.856;6.580;2022-09-03T11:02:51;24.60;40.90
61117;DHT22;47002;50.856;6.580;2022-09-03T11:05:22;24.80;40.80
61117;DHT22;47002;50.856;6.580;2022-09-03T11:07:52;25.00;40.50
61117;DHT22;47002;50.856;6.580;2022-09-03T11:10:24;25.10;40.20
61117;DHT22;47002;50.856;6.580;2022-09-03T11:13:00;25.30;39.70
61117;DHT22;47002;50.856;6.580;2022-09-03T11:15:30;25.40;39.70
61117;DHT22;47002;50.856;6.580;2022-09-03T11:18:02;25.40;39.30
61117;DHT22;47002;50.856;6.580;2022-09-03T11:20:29;25.40;39.30
61117;DHT22;47002;50.856;6.580;2022-09-03T11:22:58;25.40;39.60
61117;DHT22;47002;50.856;6.580;2022-09-03T11:25:29;25.50;39.20
61117;DHT22;47002;50.856;6.580;2022-09-03T11:28:06;25.60;39.10
61117;DHT22;47002;50.856;6.580;2022-09-03T11:30:38;25.60;39.10
61117;DHT22;47002;50.856;6.580;2022-09-03T11:33:07;25.60;39.00
61117;DHT22;47002;50.856;6.580;2022-09-03T11:35:38;25.60;39.10
61117;DHT22;47002;50.856;6.580;2022-09-03T11:38:18;25.60;39.20
61117;DHT22;47002;50.856;6.580;2022-09-03T11:40:57;25.60;39.00
61117;DHT22;47002;50.856;6.580;2022-09-03T11:43:28;25.70;38.80
61117;DHT22;47002;50.856;6.580;2022-09-03T11:46:03;25.80;38.40
61117;DHT22;47002;50.856;6.580;2022-09-03T11:48:37;25.70;38.60
61117;DHT22;47002;50.856;6.580;2022-09-03T11:51:14;25.60;39.00
61117;DHT22;47002;50.856;6.580;2022-09-03T11:53:41;25.80;38.60
61117;DHT22;47002;50.856;6.580;2022-09-03T11:56:17;26.10;38.50
61117;DHT22;47002;50.856;6.580;2022-09-03T11:58:44;26.30;38.00
61117;DHT22;47002;50.856;6.580;2022-09-03T12:01:12;26.60;37.50
61117;DHT22;47002;50.856;6.580;2022-09-03T12:03:42;26.60;37.30
61117;DHT22;47002;50.856;6.580;2022-09-03T12:06:30;26.60;37.60
61117;DHT22;47002;50.856;6.580;2022-09-03T12:09:29;26.70;37.50
61117;DHT22;47002;50.856;6.580;2022-09-03T12:12:10;26.90;37.30
61117;DHT22;47002;50.856;6.580;2022-09-03T12:14:48;27.10;36.90
61117;DHT22;47002;50.856;6.580;2022-09-03T12:17:23;27.20;36.70
61117;DHT22;47002;50.856;6.580;2022-09-03T12:19:52;27.40;36.50
61117;DHT22;47002;50.856;6.580;2022-09-03T12:22:20;27.50;36.00
61117;DHT22;47002;50.856;6.580;2022-09-03T12:24:46;27.50;36.10
61117;DHT22;47002;50.856;6.580;2022-09-03T12:27:15;27.50;36.00
61117;DHT22;47002;50.856;6.580;2022-09-03T12:29:52;27.40;36.20
61117;DHT22;47002;50.856;6.580;2022-09-03T12:32:18;27.40;36.40
61117;DHT22;47002;50.856;6.580;2022-09-03T12:34:44;27.30;36.40
61117;DHT22;47002;50.856;6.580;2022-09-03T12:37:18;27.10;36.50
61117;DHT22;47002;50.856;6.580;2022-09-03T12:39:50;27.00;36.80
61117;DHT22;47002;50.856;6.580;2022-09-03T12:42:21;27.00;37.20
61117;DHT22;47002;50.856;6.580;2022-09-03T12:44:47;27.20;37.00
61117;DHT22;47002;50.856;6.580;2022-09-03T12:47:16;27.50;36.30
61117;DHT22;47002;50.856;6.580;2022-09-03T12:49:44;27.70;36.30
61117;DHT22;47002;50.856;6.580;2022-09-03T12:52:15;27.90;36.20
61117;DHT22;47002;50.856;6.580;2022-09-03T12:54:48;28.10;35.60
61117;DHT22;47002;50.856;6.580;2022-09-03T12:57:20;28.40;35.30
61117;DHT22;47002;50.856;6.580;2022-09-03T12:59:48;28.70;35.20
61117;DHT22;47002;50.856;6.580;2022-09-03T13:02:22;29.00;34.30
61117;DHT22;47002;50.856;6.580;2022-09-03T13:04:49;29.20;34.30
61117;DHT22;47002;50.856;6.580;2022-09-03T13:07:24;29.40;34.10
61117;DHT22;47002;50.856;6.580;2022-09-03T13:09:52;29.40;33.90
61117;DHT22;47002;50.856;6.580;2022-09-03T13:12:23;29.70;33.40
61117;DHT22;47002;50.856;6.580;2022-09-03T13:14:52;30.40;32.80
61117;DHT22;47002;50.856;6.580;2022-09-03T13:17:34;31.50;31.30
61117;DHT22;47002;50.856;6.580;2022-09-03T13:20:24;32.50;29.70
61117;DHT22;47002;50.856;6.580;2022-09-03T13:23:21;33.00;28.70
61117;DHT22;47002;50.856;6.580;2022-09-03T13:25:58;33.30;28.10
61117;DHT22;47002;50.856;6.580;2022-09-03T13:28:36;33.70;28.00
61117;DHT22;47002;50.856;6.580;2022-09-03T13:31:09;34.20;27.10
61117;DHT22;47002;50.856;6.580;2022-09-03T13:33:48;34.60;26.60
61117;DHT22;47002;50.856;6.580;2022-09-03T13:36:19;34.90;26.50
61117;DHT22;47002;50.856;6.580;2022-09-03T13:38:52;35.60;25.60
61117;DHT22;47002;50.856;6.580;2022-09-03T13:41:27;36.10;24.90
61117;DHT22;47002;50.856;6.580;2022-09-03T13:43:59;36.50;24.60
61117;DHT22;47002;50.856;6.580;2022-09-03T13:46:30;36.80;24.20
61117;DHT22;47002;50.856;6.580;2022-09-03T13:49:05;36.60;23.70
61117;DHT22;47002;50.856;6.580;2022-09-03T13:51:39;36.00;24.40
61117;DHT22;47002;50.856;6.580;2022-09-03T13:54:14;35.80;24.80
61117;DHT22;47002;50.856;6.580;2022-09-03T13:56:53;35.20;25.20
61117;DHT22;47002;50.856;6.580;2022-09-03T13:59:27;34.20;26.50
61117;DHT22;47002;50.856;6.580;2022-09-03T14:02:07;33.40;27.50
61117;DHT22;47002;50.856;6.580;2022-09-03T14:04:46;32.70;28.30
61117;DHT22;47002;50.856;6.580;2022-09-03T14:07:17;31.70;29.20
61117;DHT22;47002;50.856;6.580;2022-09-03T14:09:53;30.90;30.50
61117;DHT22;47002;50.856;6.580;2022-09-03T14:12:28;30.20;31.80
61117;DHT22;47002;50.856;6.580;2022-09-03T14:14:59;29.60;33.00
61117;DHT22;47002;50.856;6.580;2022-09-03T14:17:35;29.50;33.10
61117;DHT22;47002;50.856;6.580;2022-09-03T14:20:09;29.10;33.70
61117;DHT22;47002;50.856;6.580;2022-09-03T14:22:47;29.00;34.30
61117;DHT22;47002;50.856;6.580;2022-09-03T14:25:16;28.80;34.50
61117;DHT22;47002;50.856;6.580;2022-09-03T14:27:42;28.50;35.10
61117;DHT22;47002;50.856;6.580;2022-09-03T14:30:19;28.40;35.60
61117;DHT22;47002;50.856;6.580;2022-09-03T14:32:53;28.40;35.80
61117;DHT22;47002;50.856;6.580;2022-09-03T14:35:32;28.30;35.80
61117;DHT22;47002;50.856;6.580;2022-09-03T14:38:22;28.20;36.10
61117;DHT22;47002;50.856;6.580;2022-09-03T14:40:54;28.20;36.30
61117;DHT22;47002;50.856;6.580;2022-09-03T14:43:37;28.10;36.30
61117;DHT22;47002;50.856;6.580;2022-09-03T14:49:11;27.60;37.50
61117;DHT22;47002;50.856;6.580;2022-09-03T14:51:52;27.50;38.10
61117;DHT22;47002;50.856;6.580;2022-09-03T14:54:33;27.40;38.60
61117;DHT22;47002;50.856;6.580;2022-09-03T14:57:17;27.40;38.80
61117;DHT22;47002;50.856;6.580;2022-09-03T14:59:59;28.40;37.50
61117;DHT22;47002;50.856;6.580;2022-09-03T15:03:03;29.20;36.10
61117;DHT22;47002;50.856;6.580;2022-09-03T15:05:48;29.60;35.10
61117;DHT22;47002;50.856;6.580;2022-09-03T15:08:25;29.70;35.00
61117;DHT22;47002;50.856;6.580;2022-09-03T15:10:55;30.90;33.60
61117;DHT22;47002;50.856;6.580;2022-09-03T15:13:24;32.30;31.40
61117;DHT22;47002;50.856;6.580;2022-09-03T15:16:04;33.60;29.10
61117;DHT22;47002;50.856;6.580;2022-09-03T15:18:45;34.60;27.50
61117;DHT22;47002;50.856;6.580;2022-09-03T15:21:23;35.00;26.10
61117;DHT22;47002;50.856;6.580;2022-09-03T15:24:02;35.10;25.60
61117;DHT22;47002;50.856;6.580;2022-09-03T15:26:59;34.40;26.30
61117;DHT22;47002;50.856;6.580;2022-09-03T15:29:37;33.40;27.50
61117;DHT22;47002;50.856;6.580;2022-09-03T15:32:14;32.60;28.80
61117;DHT22;47002;50.856;6.580;2022-09-03T15:34:54;31.70;30.50
61117;DHT22;47002;50.856;6.580;2022-09-03T15:37:26;30.60;33.60
61117;DHT22;47002;50.856;6.580;2022-09-03T15:40:01;29.60;35.60
61117;DHT22;47002;50.856;6.580;2022-09-03T15:42:28;28.90;36.70
61117;DHT22;47002;50.856;6.580;2022-09-03T15:44:59;28.40;37.80
61117;DHT22;47002;50.856;6.580;2022-09-03T15:47:39;28.00;38.50
61117;DHT22;47002;50.856;6.580;2022-09-03T15:50:16;27.50;39.20
61117;DHT22;47002;50.856;6.580;2022-09-03T15:52:57;27.10;40.00
61117;DHT22;47002;50.856;6.580;2022-09-03T15:55:31;26.70;40.90
61117;DHT22;47002;50.856;6.580;2022-09-03T15:58:00;26.30;41.70
61117;DHT22;47002;50.856;6.580;2022-09-03T16:00:29;26.10;42.50